sensor_id;sensor_type;location;lat;lon;timestamp;P1;durP1;ratioP1;P2;durP2;ratioP2
45734;SDS011;31446;49.632;8.328;2023-06-26T00:10:10;7.30;;;4.82;;
45734;SDS011;31446;49.632;8.328;2023-06-26T00:25:16;5.55;;;4.80;;
45734;SDS011;31446;49.632;8.328;2023-06-26T00:40:22;6.13;;;4.95;;
45734;SDS011;31446;49.632;8.328;2023-06-26T00:55:29;8.27;;;4.90;;
45734;SDS011;31446;49.632;8.328;2023-06-26T01:10:35;6.40;;;4.30;;
45734;SDS011;31446;49.632;8.328;2023-06-26T01:25:44;6.97;;;5.00;;
45734;SDS011;31446;49.632;8.328;2023-06-26T01:40:59;7.03;;;5.60;;
45734;SDS011;31446;49.632;8.328;2023-06-26T01:56:06;6.00;;;4.43;;
45734;SDS011;31446;49.632;8.328;2023-06-26T02:11:16;6.82;;;5.32;;
45734;SDS011;31446;49.632;8.328;2023-06-26T02:26:22;7.97;;;5.45;;
45734;SDS011;31446;49.632;8.328;2023-06-26T02:41:28;7.95;;;5.55;;
45734;SDS011;31446;49.632;8.328;2023-06-26T02:56:34;6.13;;;5.53;;
45734;SDS011;31446;49.632;8.328;2023-06-26T03:11:40;7.38;;;5.75;;
45734;SDS011;31446;49.632;8.328;2023-06-26T03:26:46;8.38;;;6.15;;
45734;SDS011;31446;49.632;8.328;2023-06-26T03:41:52;12.30;;;5.63;;
45734;SDS011;31446;49.632;8.328;2023-06-26T03:57:03;9.90;;;5.78;;
45734;SDS011;31446;49.632;8.328;2023-06-26T04:12:09;7.22;;;5.50;;
45734;SDS011;31446;49.632;8.328;2023-06-26T04:27:15;9.40;;;6.03;;
45734;SDS011;31446;49.632;8.328;2023-06-26T04:42:21;8.55;;;6.15;;
45734;SDS011;31446;49.632;8.328;2023-06-26T04:57:28;9.77;;;6.38;;
45734;SDS011;31446;49.632;8.328;2023-06-26T05:12:34;15.15;;;7.32;;
45734;SDS011;31446;49.632;8.328;2023-06-26T05:27:40;13.38;;;7.22;;
45734;SDS011;31446;49.632;8.328;2023-06-26T05:42:47;16.88;;;8.25;;
45734;SDS011;31446;49.632;8.328;2023-06-26T05:57:54;14.23;;;8.30;;
45734;SDS011;31446;49.632;8.328;2023-06-26T06:13:03;10.98;;;7.22;;
45734;SDS011;31446;49.632;8.328;2023-06-26T06:28:10;17.83;;;7.35;;
45734;SDS011;31446;49.632;8.328;2023-06-26T06:43:18;10.85;;;7.07;;
45734;SDS011;31446;49.632;8.328;2023-06-26T06:58:25;15.37;;;7.30;;
45734;SDS011;31446;49.632;8.328;2023-06-26T07:13:31;8.27;;;6.07;;
45734;SDS011;31446;49.632;8.328;2023-06-26T07:44:22;8.67;;;5.77;;
45734;SDS011;31446;49.632;8.328;2023-06-26T07:59:29;9.70;;;5.57;;
45734;SDS011;31446;49.632;8.328;2023-06-26T08:14:37;10.60;;;5.77;;
45734;SDS011;31446;49.632;8.328;2023-06-26T08:29:44;7.87;;;4.70;;
45734;SDS011;31446;49.632;8.328;2023-06-26T08:44:50;6.33;;;4.33;;
45734;SDS011;31446;49.632;8.328;2023-06-26T08:59:57;8.60;;;4.77;;
45734;SDS011;31446;49.632;8.328;2023-06-26T09:15:04;7.13;;;4.87;;
45734;SDS011;31446;49.632;8.328;2023-06-26T09:30:12;6.80;;;4.37;;
45734;SDS011;31446;49.632;8.328;2023-06-26T09:45:22;8.37;;;4.47;;
45734;SDS011;31446;49.632;8.328;2023-06-26T10:00:30;10.83;;;3.97;;
45734;SDS011;31446;49.632;8.328;2023-06-26T10:15:38;6.70;;;4.63;;
45734;SDS011;31446;49.632;8.328;2023-06-26T10:30:56;8.80;;;4.77;;
45734;SDS011;31446;49.632;8.328;2023-06-26T10:46:04;7.00;;;4.33;;
45734;SDS011;31446;49.632;8.328;2023-06-26T11:01:19;7.60;;;4.40;;
45734;SDS011;31446;49.632;8.328;2023-06-26T11:16:28;7.90;;;4.23;;
45734;SDS011;31446;49.632;8.328;2023-06-26T11:31:37;14.53;;;4.23;;
45734;SDS011;31446;49.632;8.328;2023-06-26T11:46:45;11.37;;;3.97;;
45734;SDS011;31446;49.632;8.328;2023-06-26T12:02:12;11.53;;;3.97;;
45734;SDS011;31446;49.632;8.328;2023-06-26T12:17:21;7.07;;;4.13;;
45734;SDS011;31446;49.632;8.328;2023-06-26T12:32:34;13.40;;;5.67;;
45734;SDS011;31446;49.632;8.328;2023-06-26T12:47:40;11.60;;;6.80;;
45734;SDS011;31446;49.632;8.328;2023-06-26T13:02:46;12.20;;;5.40;;
45734;SDS011;31446;49.632;8.328;2023-06-26T13:17:52;5.90;;;2.63;;
45734;SDS011;31446;49.632;8.328;2023-06-26T13:32:59;5.80;;;2.90;;
45734;SDS011;31446;49.632;8.328;2023-06-26T13:48:05;8.50;;;2.33;;
45734;SDS011;31446;49.632;8.328;2023-06-26T14:03:12;10.40;;;2.03;;
45734;SDS011;31446;49.632;8.328;2023-06-26T14:18:18;9.80;;;2.27;;
45734;SDS011;31446;49.632;8.328;2023-06-26T14:33:26;8.23;;;2.13;;
45734;SDS011;31446;49.632;8.328;2023-06-26T14:48:32;7.90;;;1.90;;
45734;SDS011;31446;49.632;8.328;2023-06-26T15:03:38;4.10;;;1.83;;
45734;SDS011;31446;49.632;8.328;2023-06-26T15:18:44;8.07;;;1.50;;
45734;SDS011;31446;49.632;8.328;2023-06-26T15:33:50;5.47;;;1.77;;
45734;SDS011;31446;49.632;8.328;2023-06-26T15:48:56;3.17;;;1.60;;
45734;SDS011;31446;49.632;8.328;2023-06-26T16:04:03;2.13;;;1.37;;
45734;SDS011;31446;49.632;8.328;2023-06-26T16:19:09;8.43;;;1.60;;
45734;SDS011;31446;49.632;8.328;2023-06-26T16:34:15;3.33;;;1.50;;
45734;SDS011;31446;49.632;8.328;2023-06-26T16:49:21;5.27;;;1.60;;
45734;SDS011;31446;49.632;8.328;2023-06-26T17:04:28;3.73;;;1.47;;
45734;SDS011;31446;49.632;8.328;2023-06-26T17:19:34;6.10;;;1.80;;
45734;SDS011;31446;49.632;8.328;2023-06-26T17:34:40;8.37;;;1.70;;
45734;SDS011;31446;49.632;8.328;2023-06-26T17:49:46;4.03;;;1.33;;
45734;SDS011;31446;49.632;8.328;2023-06-26T18:04:53;8.67;;;1.60;;
45734;SDS011;31446;49.632;8.328;2023-06-26T18:19:59;9.43;;;1.67;;
45734;SDS011;31446;49.632;8.328;2023-06-26T18:35:06;8.10;;;1.93;;
45734;SDS011;31446;49.632;8.328;2023-06-26T18:50:13;5.32;;;1.70;;
45734;SDS011;31446;49.632;8.328;2023-06-26T19:05:21;2.75;;;1.40;;
45734;SDS011;31446;49.632;8.328;2023-06-26T19:20:28;6.70;;;1.48;;
45734;SDS011;31446;49.632;8.328;2023-06-26T19:35:34;5.63;;;1.65;;
45734;SDS011;31446;49.632;8.328;2023-06-26T19:50:40;17.60;;;1.50;;
45734;SDS011;31446;49.632;8.328;2023-06-26T20:05:47;5.97;;;1.73;;
45734;SDS011;31446;49.632;8.328;2023-06-26T20:20:53;2.80;;;1.30;;
45734;SDS011;31446;49.632;8.328;2023-06-26T20:35:59;9.20;;;1.65;;
45734;SDS011;31446;49.632;8.328;2023-06-26T20:51:06;5.30;;;1.10;;
45734;SDS011;31446;49.632;8.328;2023-06-26T21:06:13;4.97;;;1.20;;
45734;SDS011;31446;49.632;8.328;2023-06-26T21:21:20;4.53;;;1.58;;
45734;SDS011;31446;49.632;8.328;2023-06-26T21:36:27;4.72;;;1.45;;
45734;SDS011;31446;49.632;8.328;2023-06-26T21:51:33;6.68;;;1.45;;
45734;SDS011;31446;49.632;8.328;2023-06-26T22:06:39;6.82;;;1.50;;
45734;SDS011;31446;49.632;8.328;2023-06-26T22:21:46;2.78;;;1.42;;
45734;SDS011;31446;49.632;8.328;2023-06-26T22:36:52;9.23;;;1.55;;
45734;SDS011;31446;49.632;8.328;2023-06-26T22:52:01;4.28;;;1.42;;
45734;SDS011;31446;49.632;8.328;2023-06-26T23:07:08;7.95;;;1.75;;
45734;SDS011;31446;49.632;8.328;2023-06-26T23:22:15;7.90;;;1.58;;
45734;SDS011;31446;49.632;8.328;2023-06-26T23:37:23;2.28;;;1.23;;
45734;SDS011;31446;49.632;8.328;2023-06-26T23:52:32;5.93;;;1.30;;
